createdAt,value
2022-08-09T00:00:00.951Z,101975.28
2022-08-09T00:02:49.013Z,101972.59
2022-08-09T00:06:15.396Z,101965.44
2022-08-09T00:08:10.031Z,101961.78
2022-08-09T00:10:38.645Z,101956.41
2022-08-09T00:13:16.983Z,101958.22
2022-08-09T00:15:59.275Z,101952.84
2022-08-09T00:18:35.869Z,101957.38
2022-08-09T00:21:07.923Z,101949.28
2022-08-09T00:23:55.927Z,101962.75
2022-08-09T00:26:32.870Z,101953.84
2022-08-09T00:29:03.674Z,101958.28
2022-08-09T00:31:59.319Z,101961.84
2022-08-09T00:34:26.075Z,101963.63
2022-08-09T00:36:52.972Z,101960.03
2022-08-09T00:40:10.266Z,101963.53
2022-08-09T00:44:13.328Z,101957.28
2022-08-09T00:44:53.929Z,101952.78
2022-08-09T00:47:21.538Z,101954.59
2022-08-09T00:49:54.518Z,101955.50
2022-08-09T00:52:30.450Z,101951.91
2022-08-09T00:55:01.531Z,101950.16
2022-08-09T00:57:34.400Z,101944.78
2022-08-09T01:00:21.879Z,101949.22
2022-08-09T01:03:32.726Z,101953.69
2022-08-09T01:06:18.153Z,101955.44
2022-08-09T01:09:14.961Z,101953.69
2022-08-09T01:12:00.447Z,101956.38
2022-08-09T01:14:41.480Z,101959.91
2022-08-09T01:17:18.001Z,101961.69
2022-08-09T01:20:05.131Z,101963.47
2022-08-09T01:24:01.227Z,101964.34
2022-08-09T01:26:18.969Z,101967.91
2022-08-09T01:28:48.355Z,101973.22
2022-08-09T01:32:29.121Z,101965.19
2022-08-09T01:34:09.062Z,101962.47
2022-08-09T01:36:36.382Z,101962.50
2022-08-09T01:39:06.359Z,101972.34
2022-08-09T01:41:53.616Z,101965.22
2022-08-09T01:44:27.648Z,101966.94
2022-08-09T01:46:54.754Z,101974.03
2022-08-09T01:49:24.310Z,101966.91
2022-08-09T01:51:56.327Z,101975.81
2022-08-09T01:54:32.548Z,101966.00
2022-08-09T01:57:05.122Z,101968.66
2022-08-09T01:59:41.106Z,101963.25
2022-08-09T02:02:20.934Z,101965.91
2022-08-09T02:04:49.848Z,101957.84
2022-08-09T02:08:36.088Z,101969.41
2022-08-09T02:10:09.891Z,101965.84
2022-08-09T02:12:37.800Z,101963.13
2022-08-09T02:15:08.004Z,101956.88
2022-08-09T02:17:59.968Z,101960.47
2022-08-09T02:20:25.041Z,101955.13
2022-08-09T02:23:39.803Z,101955.09
2022-08-09T02:26:26.796Z,101956.88
2022-08-09T02:28:58.269Z,101953.28
2022-08-09T02:31:36.574Z,101973.72
2022-08-09T02:34:38.658Z,101961.25
2022-08-09T02:37:06.839Z,101965.81
2022-08-09T02:39:42.585Z,101962.22
2022-08-09T02:42:17.189Z,101955.97
2022-08-09T02:44:49.610Z,101963.16
2022-08-09T02:47:19.295Z,101949.78
2022-08-09T02:50:01.352Z,101947.88
2022-08-09T02:52:38.588Z,101954.91
2022-08-09T02:55:20.314Z,101954.00
2022-08-09T02:58:00.598Z,101945.06
2022-08-09T03:00:39.477Z,101942.44
2022-08-09T03:03:21.621Z,101947.81
2022-08-09T03:06:03.023Z,101954.06
2022-08-09T03:08:31.195Z,101959.34
2022-08-09T03:11:00.240Z,101955.75
2022-08-09T03:13:27.429Z,101957.44
2022-08-09T03:16:11.144Z,101944.94
2022-08-09T03:18:38.427Z,101948.56
2022-08-09T03:21:06.075Z,101947.59
2022-08-09T03:23:33.139Z,101953.00
2022-08-09T03:26:03.465Z,101952.13
2022-08-09T03:28:33.051Z,101961.91
2022-08-09T03:31:00.374Z,101962.75
2022-08-09T03:33:53.371Z,101965.41
2022-08-09T03:36:27.051Z,101961.91
2022-08-09T03:38:54.989Z,101960.94
2022-08-09T03:41:30.222Z,101965.41
2022-08-09T03:44:12.038Z,101959.19
2022-08-09T03:46:39.328Z,101962.75
2022-08-09T03:49:08.895Z,101954.72
2022-08-09T03:51:43.887Z,101958.28
2022-08-09T03:54:34.511Z,101961.13
2022-08-09T03:57:12.190Z,101961.03
2022-08-09T03:59:54.651Z,101962.72
2022-08-09T04:02:28.509Z,101962.75
2022-08-09T04:05:06.927Z,101970.69
2022-08-09T04:07:57.260Z,101968.09
2022-08-09T04:10:28.916Z,101970.75
2022-08-09T04:13:00.807Z,101967.22
2022-08-09T04:16:18.380Z,101970.66
2022-08-09T04:18:22.009Z,101973.38
2022-08-09T04:20:49.989Z,101968.84
2022-08-09T04:23:24.340Z,101978.63
2022-08-09T04:25:53.173Z,101965.31
2022-08-09T04:28:32.973Z,101967.00
2022-08-09T04:31:08.406Z,101976.81
2022-08-09T04:33:50.182Z,101979.47
2022-08-09T04:36:22.084Z,101975.84
2022-08-09T04:38:50.258Z,101986.56
2022-08-09T04:41:17.110Z,101988.34
2022-08-09T04:43:46.571Z,101991.91
2022-08-09T04:46:38.181Z,101992.84
2022-08-09T04:49:08.981Z,102007.97
2022-08-09T04:51:41.493Z,102004.19
2022-08-09T04:54:08.405Z,102003.41
2022-08-09T04:56:35.933Z,102007.81
2022-08-09T04:59:07.444Z,102008.72
2022-08-09T05:01:40.029Z,101998.03
2022-08-09T05:04:06.905Z,101999.84
2022-08-09T05:06:35.930Z,101998.09
2022-08-09T05:09:02.908Z,102007.00
2022-08-09T05:11:35.331Z,102010.66
2022-08-09T05:14:05.611Z,102010.66
2022-08-09T05:16:33.458Z,102012.41
2022-08-09T05:19:10.401Z,102010.72
2022-08-09T05:21:47.275Z,102012.53
2022-08-09T05:24:24.062Z,102023.25
2022-08-09T05:26:51.498Z,102020.63
2022-08-09T05:29:22.037Z,102023.16
2022-08-09T05:31:57.170Z,102018.91
2022-08-09T05:34:31.383Z,102019.91
2022-08-09T05:37:06.070Z,102024.28
2022-08-09T05:39:42.884Z,102019.91
2022-08-09T05:42:20.508Z,102015.41
2022-08-09T05:44:53.974Z,102011.94
2022-08-09T05:47:23.184Z,102021.78
2022-08-09T05:50:25.686Z,102019.91
2022-08-09T05:52:39.785Z,102016.31
2022-08-09T05:55:09.789Z,102018.00
2022-08-09T05:57:56.046Z,102027.03
2022-08-09T06:00:26.015Z,102017.31
2022-08-09T06:02:54.398Z,102015.44
2022-08-09T06:05:50.336Z,102024.31
2022-08-09T06:08:11.928Z,102032.53
2022-08-09T06:10:38.885Z,102034.44
2022-08-09T06:13:20.306Z,102026.31
2022-08-09T06:15:51.271Z,102029.13
2022-08-09T06:18:24.963Z,102030.84
2022-08-09T06:20:54.514Z,102029.94
2022-08-09T06:23:57.410Z,102038.09
2022-08-09T06:26:11.768Z,102031.84
2022-08-09T06:28:38.399Z,102029.06
2022-08-09T06:31:05.098Z,102020.16
2022-08-09T06:33:40.668Z,102031.94
2022-08-09T06:36:09.335Z,102019.50
2022-08-09T06:38:37.641Z,102024.00
2022-08-09T06:41:18.364Z,102019.59
2022-08-09T06:43:46.916Z,102029.47
2022-08-09T06:46:38.977Z,102034.84
2022-08-09T06:49:01.374Z,102032.22
2022-08-09T06:51:28.289Z,102032.16
2022-08-09T06:53:55.483Z,102040.25
2022-08-09T06:56:30.630Z,102042.09
2022-08-09T07:00:51.797Z,102041.28
2022-08-09T07:02:05.543Z,102039.47
2022-08-09T07:04:33.158Z,102047.56
2022-08-09T07:07:01.002Z,102047.66
2022-08-09T07:09:56.439Z,102053.03
2022-08-09T07:12:20.158Z,102042.34
2022-08-09T07:14:51.330Z,102032.53
2022-08-09T07:17:19.936Z,102040.56
2022-08-09T07:19:47.952Z,102034.31
2022-08-09T07:22:17.388Z,102038.84
2022-08-09T07:24:49.333Z,102052.25
2022-08-09T07:27:27.360Z,102043.31
2022-08-09T07:30:01.984Z,102050.47
2022-08-09T07:32:33.122Z,102048.72
2022-08-09T07:35:08.211Z,102048.72
2022-08-09T07:37:43.371Z,102043.34
2022-08-09T07:40:17.292Z,102038.00
2022-08-09T07:42:52.499Z,102046.94
2022-08-09T07:45:38.306Z,102054.13
2022-08-09T07:48:06.466Z,102038.00
2022-08-09T07:50:36.424Z,102042.50
2022-08-09T07:53:05.262Z,102058.59
2022-08-09T07:55:41.684Z,102048.75
2022-08-09T07:58:21.616Z,102039.81
2022-08-09T08:00:59.091Z,102046.06
2022-08-09T08:03:36.941Z,102056.84
2022-08-09T08:06:04.718Z,102059.50
2022-08-09T08:08:59.673Z,102058.59
2022-08-09T08:12:11.234Z,102056.81
2022-08-09T08:14:06.497Z,102076.50
2022-08-09T08:16:34.610Z,102064.88
2022-08-09T08:19:02.633Z,102062.19
2022-08-09T08:21:30.440Z,102070.22
2022-08-09T08:23:57.183Z,102076.50
2022-08-09T08:26:54.605Z,102054.97
2022-08-09T08:29:15.040Z,102066.59
2022-08-09T08:32:03.795Z,102063.88
2022-08-09T08:34:34.293Z,102062.13
2022-08-09T08:37:02.416Z,102060.22
2022-08-09T08:39:29.115Z,102049.47
2022-08-09T08:42:05.410Z,102045.88
2022-08-09T08:44:36.544Z,102059.25
2022-08-09T08:47:05.032Z,102065.50
2022-08-09T08:49:47.840Z,102058.28
2022-08-09T08:52:52.986Z,102079.84
2022-08-09T08:55:07.962Z,102065.50
2022-08-09T08:57:35.882Z,102072.59
2022-08-09T09:00:12.867Z,102056.38
2022-08-09T09:02:50.010Z,102055.44
2022-08-09T09:05:32.914Z,102058.09
2022-08-09T09:08:31.124Z,102064.38
2022-08-09T09:10:57.724Z,102064.41
2022-08-09T09:13:24.736Z,102062.63
2022-08-09T09:16:09.396Z,102067.00
2022-08-09T09:18:37.577Z,102066.03
2022-08-09T09:21:07.154Z,102067.03
2022-08-09T09:23:48.982Z,102065.13
2022-08-09T09:26:17.224Z,102064.13
2022-08-09T09:29:03.681Z,102062.34
2022-08-09T09:32:06.597Z,102065.09
2022-08-09T09:34:21.949Z,102064.03
2022-08-09T09:36:54.769Z,102065.72
2022-08-09T09:39:50.394Z,102063.09
2022-08-09T09:42:25.513Z,102072.13
2022-08-09T09:45:26.590Z,102064.72
2022-08-09T09:47:58.705Z,102071.88
2022-08-09T09:50:50.751Z,102067.41
2022-08-09T09:53:20.885Z,102068.28
2022-08-09T09:56:04.502Z,102050.31
2022-08-09T09:58:46.517Z,102075.41
2022-08-09T10:01:35.873Z,102074.31
2022-08-09T10:04:09.534Z,102080.59
2022-08-09T10:06:46.842Z,102071.63
2022-08-09T10:09:22.162Z,102076.22
2022-08-09T10:12:11.764Z,102074.31
2022-08-09T10:14:48.607Z,102072.50
2022-08-09T10:17:51.152Z,102068.88
2022-08-09T10:20:27.386Z,102068.94
2022-08-09T10:23:13.863Z,102070.69
2022-08-09T10:26:08.164Z,102057.09
2022-08-09T10:28:33.480Z,102057.88
2022-08-09T10:34:11.216Z,102067.63
2022-08-09T10:36:35.537Z,102065.59
2022-08-09T10:39:02.397Z,102059.22
2022-08-09T10:41:29.112Z,102056.81
2022-08-09T10:43:59.197Z,102062.88
2022-08-09T10:47:01.130Z,102058.41
2022-08-09T10:49:54.336Z,102073.75
2022-08-09T10:52:56.800Z,102059.13
2022-08-09T10:55:28.858Z,102057.97
2022-08-09T10:58:33.815Z,102050.19
2022-08-09T11:03:02.652Z,102053.72
2022-08-09T11:04:30.759Z,102054.69
2022-08-09T11:07:00.319Z,102052.88
2022-08-09T11:09:47.542Z,102046.47
2022-08-09T11:12:26.646Z,102053.44
2022-08-09T11:15:04.289Z,102058.66
2022-08-09T11:17:31.864Z,102051.47
2022-08-09T11:20:22.268Z,102049.78
2022-08-09T11:22:57.333Z,102046.19
2022-08-09T11:25:36.241Z,102039.94
2022-08-09T11:28:33.983Z,102032.81
2022-08-09T11:31:03.939Z,102021.81
2022-08-09T11:33:46.231Z,102031.81
2022-08-09T11:36:35.372Z,102034.59
2022-08-09T11:39:03.910Z,102026.06
2022-08-09T11:41:37.876Z,102017.19
2022-08-09T11:44:05.511Z,102011.31
2022-08-09T11:46:52.816Z,102018.47
2022-08-09T11:49:28.055Z,102015.69
2022-08-09T11:52:57.121Z,102021.06
2022-08-09T11:55:34.999Z,102014.13
2022-08-09T11:58:19.802Z,102011.75
2022-08-09T12:01:00.141Z,102019.88
2022-08-09T12:03:54.896Z,102012.59
2022-08-09T12:06:17.623Z,102010.78
2022-08-09T12:08:54.804Z,102000.09
2022-08-09T12:11:24.485Z,102011.84
2022-08-09T12:14:07.195Z,102015.25
2022-08-09T12:16:40.147Z,102014.34
2022-08-09T12:19:12.954Z,102006.13
2022-08-09T12:21:48.526Z,101996.13
2022-08-09T12:24:25.132Z,102007.66
2022-08-09T12:29:10.737Z,101995.22
2022-08-09T12:30:01.799Z,102000.63
2022-08-09T12:32:44.508Z,101996.88
2022-08-09T12:35:13.467Z,101985.91
2022-08-09T12:37:51.601Z,101979.72
2022-08-09T12:40:24.350Z,101986.66
2022-08-09T12:42:52.231Z,101981.31
2022-08-09T12:45:33.736Z,101970.25
2022-08-09T12:48:03.211Z,101968.28
2022-08-09T12:50:30.328Z,101966.56
2022-08-09T12:53:18.114Z,101969.09
2022-08-09T12:56:15.670Z,101968.25
2022-08-09T12:58:30.375Z,101964.91
2022-08-09T13:00:58.759Z,101969.31
2022-08-09T13:03:57.191Z,101962.19
2022-08-09T13:06:37.115Z,101965.53
2022-08-09T13:09:18.229Z,101970.97
2022-08-09T13:11:47.388Z,101962.22
2022-08-09T13:14:42.413Z,101954.66
2022-08-09T13:17:08.448Z,101954.94
2022-08-09T13:20:09.772Z,101948.69
2022-08-09T13:22:38.386Z,101945.47
2022-08-09T13:25:16.343Z,101945.06
2022-08-09T13:27:48.676Z,101944.91
2022-08-09T13:30:50.543Z,101941.41
2022-08-09T13:33:11.996Z,101941.16
2022-08-09T13:36:39.604Z,101949.88
2022-08-09T13:38:57.535Z,101932.28
2022-08-09T13:41:57.602Z,101945.13
2022-08-09T13:44:16.620Z,101931.19
2022-08-09T13:47:26.917Z,101930.31
2022-08-09T13:49:38.099Z,101931.06
2022-08-09T13:52:23.650Z,101933.53
2022-08-09T13:54:59.936Z,101929.91
2022-08-09T13:57:37.457Z,101931.00
2022-08-09T14:00:18.652Z,101920.19
2022-08-09T14:03:03.016Z,101910.00
2022-08-09T14:05:56.892Z,101912.13
2022-08-09T14:08:27.049Z,101906.47
2022-08-09T14:10:55.472Z,101916.00
2022-08-09T14:14:15.785Z,101910.41
2022-08-09T14:16:15.088Z,101914.91
2022-08-09T14:18:45.876Z,101908.69
2022-08-09T14:21:22.598Z,101909.59
2022-08-09T14:23:56.703Z,101914.91
2022-08-09T14:26:32.444Z,101907.38
2022-08-09T14:30:18.382Z,101911.16
2022-08-09T14:32:02.083Z,101905.03
2022-08-09T14:34:34.001Z,101898.22
2022-08-09T14:37:02.231Z,101902.16
2022-08-09T14:39:47.490Z,101908.22
2022-08-09T14:42:31.856Z,101907.44
2022-08-09T14:45:14.759Z,101909.75
2022-08-09T14:47:49.548Z,101904.97
2022-08-09T14:50:24.685Z,101909.28
2022-08-09T14:52:51.368Z,101900.06
2022-08-09T14:55:23.057Z,101912.72
2022-08-09T14:57:49.982Z,101905.47
2022-08-09T15:00:17.658Z,101901.72
2022-08-09T15:02:47.578Z,101898.13
2022-08-09T15:05:19.135Z,101892.59
2022-08-09T15:07:54.702Z,101889.81
2022-08-09T15:10:24.989Z,101896.31
2022-08-09T15:12:53.288Z,101887.22
2022-08-09T15:15:20.389Z,101891.59
2022-08-09T15:17:52.582Z,101887.78
2022-08-09T15:21:54.981Z,101895.59
2022-08-09T15:24:03.041Z,101888.16
2022-08-09T15:25:57.417Z,101897.13
2022-08-09T15:28:28.386Z,101895.38
2022-08-09T15:31:09.812Z,101889.47
2022-08-09T15:34:18.225Z,101897.34
2022-08-09T15:36:32.196Z,101884.25
2022-08-09T15:39:00.147Z,101892.25
2022-08-09T15:41:31.508Z,101895.69
2022-08-09T15:44:02.725Z,101893.88
2022-08-09T15:46:37.174Z,101886.56
2022-08-09T15:49:22.113Z,101890.75
2022-08-09T15:52:02.886Z,101886.53
2022-08-09T15:54:50.571Z,101874.88
2022-08-09T15:57:35.030Z,101876.75
2022-08-09T16:00:14.283Z,101880.03
2022-08-09T16:02:48.202Z,101876.88
2022-08-09T16:05:22.109Z,101871.91
2022-08-09T16:07:49.397Z,101874.75
2022-08-09T16:10:56.006Z,101872.94
2022-08-09T16:13:18.926Z,101861.72
2022-08-09T16:16:10.834Z,101871.66
2022-08-09T16:18:45.558Z,101871.94
2022-08-09T16:21:16.967Z,101870.00
2022-08-09T16:23:50.854Z,101867.53
2022-08-09T16:26:33.392Z,101864.47
2022-08-09T16:29:11.295Z,101853.09
2022-08-09T16:32:19.577Z,101861.50
2022-08-09T16:34:54.982Z,101867.75
2022-08-09T16:37:55.287Z,101859.13
2022-08-09T16:40:12.898Z,101860.97
2022-08-09T16:42:45.574Z,101859.78
2022-08-09T16:45:20.129Z,101866.94
2022-08-09T16:48:42.503Z,101856.63
2022-08-09T16:50:38.882Z,101875.25
2022-08-09T16:53:06.134Z,101868.34
2022-08-09T16:55:59.950Z,101865.16
2022-08-09T16:58:21.073Z,101861.16
2022-08-09T17:00:48.857Z,101868.47
2022-08-09T17:03:21.360Z,101862.78
2022-08-09T17:06:07.399Z,101864.47
2022-08-09T17:09:03.211Z,101867.34
2022-08-09T17:11:32.941Z,101854.75
2022-08-09T17:14:25.961Z,101856.19
2022-08-09T17:17:01.082Z,101859.28
2022-08-09T17:20:05.980Z,101867.34
2022-08-09T17:22:30.856Z,101861.06
2022-08-09T17:25:02.737Z,101869.38
2022-08-09T17:27:32.572Z,101866.41
2022-08-09T17:29:59.209Z,101876.41
2022-08-09T17:32:38.380Z,101866.38
2022-08-09T17:35:12.333Z,101872.31
2022-08-09T17:38:02.794Z,101876.03
2022-08-09T17:40:33.834Z,101879.56
2022-08-09T17:43:32.095Z,101870.00
2022-08-09T17:46:03.737Z,101883.19
2022-08-09T17:48:39.453Z,101873.91
2022-08-09T17:51:19.445Z,101878.75
2022-08-09T17:53:52.979Z,101872.75
2022-08-09T17:56:28.785Z,101881.47
2022-08-09T17:59:11.352Z,101876.03
2022-08-09T18:02:06.606Z,101884.06
2022-08-09T18:04:27.929Z,101879.78
2022-08-09T18:06:55.835Z,101886.16
2022-08-09T18:09:25.184Z,101882.63
2022-08-09T18:12:15.356Z,101887.28
2022-08-09T18:14:53.565Z,101895.84
2022-08-09T18:17:27.549Z,101897.91
2022-08-09T18:20:55.492Z,101894.78
2022-08-09T18:22:56.936Z,101896.84
2022-08-09T18:30:40.108Z,101900.03
2022-08-09T18:31:51.681Z,101912.00
2022-08-09T18:34:14.617Z,101910.41
2022-08-09T18:36:41.392Z,101902.63
2022-08-09T18:39:16.726Z,101899.38
2022-08-09T18:41:52.887Z,101906.25
2022-08-09T18:44:30.493Z,101912.66
2022-08-09T18:47:08.293Z,101904.88
2022-08-09T18:49:41.766Z,101913.53
2022-08-09T18:52:14.540Z,101907.44
2022-08-09T18:54:52.370Z,101906.88
2022-08-09T18:57:22.389Z,101913.50
2022-08-09T18:59:57.639Z,101904.06
2022-08-09T19:02:31.802Z,101907.28
2022-08-09T19:05:20.437Z,101918.28
2022-08-09T19:08:04.211Z,101912.28
2022-08-09T19:10:39.478Z,101918.94
2022-08-09T19:13:23.603Z,101925.53
2022-08-09T19:15:56.886Z,101932.84
2022-08-09T19:18:33.351Z,101926.78
2022-08-09T19:21:05.480Z,101931.38
2022-08-09T19:24:37.175Z,101941.38
2022-08-09T19:26:19.351Z,101933.38
2022-08-09T19:29:01.295Z,101933.63
2022-08-09T19:31:30.782Z,101938.13
2022-08-09T19:34:21.330Z,101926.44
2022-08-09T19:36:51.444Z,101931.22
2022-08-09T19:39:20.473Z,101940.34
2022-08-09T19:41:56.717Z,101939.47
2022-08-09T19:44:23.737Z,101936.91
2022-08-09T19:46:53.528Z,101939.59
2022-08-09T19:50:09.775Z,101940.53
2022-08-09T19:52:10.112Z,101932.53
2022-08-09T19:54:39.878Z,101931.72
2022-08-09T19:57:08.547Z,101939.88
2022-08-09T19:59:58.047Z,101937.22
2022-08-09T20:04:18.092Z,101939.28
2022-08-09T20:05:14.586Z,101944.69
2022-08-09T20:07:56.733Z,101937.59
2022-08-09T20:10:33.984Z,101938.53
2022-08-09T20:13:04.084Z,101948.50
2022-08-09T20:16:33.878Z,101944.97
2022-08-09T20:18:22.171Z,101944.28
2022-08-09T20:20:55.013Z,101948.00
2022-08-09T20:23:23.556Z,101945.13
2022-08-09T20:25:52.488Z,101942.56
2022-08-09T20:28:27.798Z,101938.97
2022-08-09T20:31:04.863Z,101947.13
2022-08-09T20:33:39.133Z,101945.50
2022-08-09T20:36:08.860Z,101940.94
2022-08-09T20:39:02.657Z,101941.03
2022-08-09T20:41:32.065Z,101940.13
2022-08-09T20:44:02.302Z,101940.19
2022-08-09T20:46:42.341Z,101943.81
2022-08-09T20:49:11.494Z,101938.44
2022-08-09T20:51:40.972Z,101931.28
2022-08-09T20:54:16.735Z,101931.34
2022-08-09T20:56:46.777Z,101927.84
2022-08-09T20:59:16.754Z,101932.28
2022-08-09T21:01:50.798Z,101924.38
2022-08-09T21:05:52.069Z,101934.25
2022-08-09T21:07:11.414Z,101925.25
2022-08-09T21:09:56.784Z,101921.72
2022-08-09T21:15:14.077Z,101934.50
2022-08-09T21:18:11.074Z,101932.72
2022-08-09T21:20:29.959Z,101940.84
2022-08-09T21:22:57.700Z,101936.34
2022-08-09T21:25:44.207Z,101940.84
2022-08-09T21:28:33.318Z,101941.78
2022-08-09T21:31:00.691Z,101935.53
2022-08-09T21:33:43.660Z,101932.91
2022-08-09T21:36:10.327Z,101934.69
2022-08-09T21:38:38.167Z,101938.44
2022-08-09T21:41:08.404Z,101944.69
2022-08-09T21:43:57.843Z,101942.94
2022-08-09T21:46:24.148Z,101941.28
2022-08-09T21:48:52.447Z,101944.03
2022-08-09T21:51:23.961Z,101952.22
2022-08-09T21:53:57.695Z,101954.00
2022-08-09T21:56:42.905Z,101954.97
2022-08-09T21:59:11.224Z,101956.81
2022-08-09T22:02:01.246Z,101957.72
2022-08-09T22:04:55.574Z,101964.03
2022-08-09T22:07:35.522Z,101964.03
2022-08-09T22:10:04.823Z,101961.38
2022-08-09T22:12:32.067Z,101960.53
2022-08-09T22:14:59.145Z,101960.56
2022-08-09T22:17:31.820Z,101970.41
2022-08-09T22:20:00.700Z,101970.44
2022-08-09T22:22:31.299Z,101973.13
2022-08-09T22:26:08.370Z,101972.28
2022-08-09T22:27:47.989Z,101975.94
2022-08-09T22:30:15.496Z,101974.13
2022-08-09T22:32:53.164Z,101969.66
2022-08-09T22:36:01.460Z,101977.78
2022-08-09T22:38:07.163Z,101981.50
2022-08-09T22:40:35.258Z,101982.38
2022-08-09T22:43:16.039Z,101979.72
2022-08-09T22:48:12.121Z,101974.34
2022-08-09T22:48:35.736Z,101976.16
2022-08-09T22:51:10.721Z,101987.00
2022-08-09T22:54:01.136Z,101973.47
2022-08-09T22:56:34.350Z,101983.44
2022-08-09T22:59:05.783Z,101967.28
2022-08-09T23:01:49.002Z,101984.34
2022-08-09T23:04:15.711Z,101971.84
2022-08-09T23:07:02.630Z,101976.41
2022-08-09T23:09:29.473Z,101982.72
2022-08-09T23:11:56.118Z,101974.59
2022-08-09T23:14:37.260Z,101977.31
2022-08-09T23:17:08.683Z,101973.72
2022-08-09T23:20:07.245Z,101975.59
2022-08-09T23:22:21.974Z,101977.38
2022-08-09T23:24:48.823Z,101975.59
2022-08-09T23:27:15.749Z,101969.34
2022-08-09T23:29:42.610Z,101972.91
2022-08-09T23:32:09.347Z,101970.25
2022-08-09T23:34:36.704Z,101965.78
2022-08-09T23:37:04.589Z,101968.47
2022-08-09T23:39:31.469Z,101965.81
2022-08-09T23:41:58.482Z,101961.41
2022-08-09T23:44:25.176Z,101961.44
2022-08-09T23:46:57.342Z,101957.84
2022-08-09T23:49:25.602Z,101965.97
2022-08-09T23:51:53.600Z,101955.28
2022-08-09T23:54:21.035Z,101968.75
2022-08-09T23:56:55.870Z,101959.75
2022-08-09T23:59:24.347Z,101963.34
